• Join FlightAware (Why Join?)
  • Login
  • US Flag 
02:29AM EDT


 

Airport Tracker/Info


-or-


 

Live Flight TrackerFlight Track Log ✈ JBU10 ✈ 03-Aug-2013 ✈ MDSD / SDQ - KJFK

Flight Track Log - Related Links

Times and Time Zones

All times are in EDT time to prevent confusion due to time zone crossing. See the JBU10 flight status page for this flight to view local times or setup timezone preferences in your user account.

Time Position Orientation Groundspeed Altitude Reporting Facility
EDT Latitude Longitude Course Direction KTS MPH feet Rate Location/Type
09:40PM 18.7626 -69.7000 North  Level FlightAware Approximate
09:41PM 18.8808 -69.6953 North  Level FlightAware Approximate
09:42PM 18.9987 -69.6835 North  Level FlightAware Approximate
09:42PM 18.8080 -69.8020 356° North 345 397 11,000  Level FlightAware
09:43PM 19.1169 -69.6885 356° North  Level FlightAware Approximate
09:43PM 18.8560 -69.8190 341° North 352 405 11,100  Level FlightAware
09:46PM 19.1472 -69.8624 356° North  Level Estimated
09:47PM 19.2600 -69.8793 352° North  Level Estimated
09:48PM 19.3728 -69.8962 352° North  Level Estimated
09:49PM 19.4856 -69.9132 352° North  Level Estimated
09:49PM 19.5210 -70.0530 352° North 429 494 22,400  Level FlightAware
09:50PM 19.5830 -70.0750 342° North 433 498 23,100 540 Climbing FlightAware
09:50PM 19.6500 -70.0990 341° North 433 498 23,100  Level FlightAware
09:51PM 19.7090 -70.1210 341° North 433 498 23,100 1,380 Level FlightAware
09:52PM 19.8070 -70.1550 342° North 444 511 24,900 1,380 Climbing FlightAware
09:52PM 19.8660 -70.1770 341° North 444 511 24,900  Level FlightAware
09:53PM 19.9250 -70.1980 341° North 444 511 24,900  Level FlightAware
09:53PM 19.9850 -70.2200 341° North 444 511 24,900  Level FlightAware
09:54PM 20.0430 -70.2410 341° North 444 511 24,900  Level FlightAware
09:55PM 20.1020 -70.2630 341° North 444 511 24,900 2,760 Level FlightAware
09:56PM 20.3036 -70.3133 341° North 451 519 29,600 2,820 Climbing Miami Center
09:57PM 20.4306 -70.3139 360° North 451 519 30,800 1,200 Climbing Miami Center
09:58PM 20.5544 -70.2858 12° North 442 509 32,000 540 Climbing Miami Center
09:59PM 20.6761 -70.2558 13° North 442 509 32,000  Level Miami Center
10:00PM 20.7997 -70.2231 14° North 447 514 32,000  Level Miami Center
10:01PM 20.9233 -70.1928 13° North 447 514 32,000  Level Miami Center
10:02PM 21.0428 -70.1603 14° North 447 514 32,000  Level Miami Center
10:03PM 21.1644 -70.1297 13° North 447 514 32,000  Level Miami Center
10:04PM 21.2861 -70.0972 14° North 447 514 32,000 60 Level Miami Center
10:05PM 21.4097 -70.0642 14° North 447 514 32,200 720 Climbing Miami Center
10:06PM 21.5314 -70.0336 13° North 447 514 33,500 960 Climbing Miami Center
10:07PM 21.6508 -70.0028 13° North 447 514 34,100 720 Climbing Miami Center
10:08PM 21.7683 -69.9722 14° North 447 514 35,000 780 Climbing Miami Center
10:09PM 21.8878 -69.9414 13° North 447 514 35,700 480 Climbing Miami Center
10:10PM 22.0050 -69.9064 15° North 442 509 36,000 120 Climbing Miami Center
10:11PM 22.1225 -69.8756 14° North 437 503 36,000  Level Miami Center
10:12PM 22.2400 -69.8469 13° North 432 497 36,000  Level Miami Center
10:13PM 22.3575 -69.8158 14° North 432 497 36,000  Level Miami Center
10:14PM 22.4769 -69.7825 14° North 432 497 36,000  Level Miami Center
10:15PM 22.5942 -69.7492 15° North 432 497 36,000  Level Miami Center
10:16PM 22.7136 -69.7203 13° North 437 503 36,000  Level Miami Center
10:17PM 22.8331 -69.6889 14° North 437 503 36,000  Level Miami Center
10:18PM 22.9464 -69.6556 15° North 430 495 36,000  Level Miami Center
10:19PM 23.0678 -69.6264 12° North 430 495 36,000  Level Miami Center
10:20PM 23.1831 -69.5906 16° North 430 495 36,000  Level Miami Center
10:21PM 23.3047 -69.5633 12° North 430 495 36,000  Level Miami Center
10:22PM 23.4239 -69.5294 15° North 435 501 36,000  Level Miami Center
10:23PM 23.5417 -69.5022 12° North 435 501 36,000  Level Miami Center
10:24PM 23.6586 -69.4661 16° North 430 495 36,000  Level Miami Center
10:25PM 23.7758 -69.4319 15° North 435 501 36,000  Level Miami Center
10:26PM 23.8953 -69.4044 12° North 430 495 36,000  Level Miami Center
10:27PM 24.0125 -69.3681 16° North 430 495 36,000  Level Miami Center
10:28PM 24.1297 -69.3336 15° North 435 501 36,000  Level Miami Center
10:29PM 24.2492 -69.3061 12° North 435 501 36,000  Level Miami Center
10:30PM 24.3686 -69.2739 14° North 430 495 36,000  Level Miami Center
10:31PM 24.4836 -69.2394 15° North 430 495 36,000  Level Miami Center
10:32PM 24.6008 -69.2072 14° North 430 495 36,000  Level Miami Center
10:33PM 24.7181 -69.1747 14° North 430 495 36,000  Level Miami Center
10:34PM 24.8350 -69.1400 15° North 430 495 36,000  Level Miami Center
10:35PM 24.9525 -69.1142 11° North 430 495 36,000  Level Miami Center
10:37PM 25.1490 -69.1206 347° North  Level FlightAware Approximate
10:44PM 25.9534 -69.2836 350° North  Level FlightAware Approximate
10:45PM 26.0684 -69.3067 350° North  Level FlightAware Approximate
10:46PM 26.1833 -69.3298 350° North  Level FlightAware Approximate
10:47PM 26.2982 -69.3534 348° North  Level FlightAware Approximate
10:48PM 26.4126 -69.3798 348° North  Level FlightAware Approximate
10:49PM 26.5271 -69.4062 348° North  Level FlightAware Approximate
10:50PM 26.6415 -69.4326 348° North  Level FlightAware Approximate
10:50PM 26.7167 -69.4500 349° North 432 497 36,000  Level New York Oceanic (ODAPS)
10:51PM 26.7561 -69.4582 349° North  Level FlightAware Approximate
10:52PM 26.8709 -69.4821 349° North  Level FlightAware Approximate
10:53PM 26.9858 -69.5060 349° North  Level FlightAware Approximate
10:54PM 27.1007 -69.5300 349° North  Level FlightAware Approximate
10:55PM 27.2155 -69.5541 349° North  Level FlightAware Approximate
10:56PM 27.5488 -69.6295 349° North 432 497 36,000  Level FlightAware Transoceanic
10:57PM 27.6677 -69.6554 349° North 432 497 36,000  Level FlightAware Transoceanic
10:58PM 27.7865 -69.6813 349° North 432 497 36,000  Level FlightAware Transoceanic
10:59PM 27.9054 -69.7073 349° North 432 497 36,000  Level FlightAware Transoceanic
11:00PM 28.0242 -69.7333 349° North 432 497 36,000  Level FlightAware Transoceanic
11:01PM 28.1430 -69.7594 349° North 432 497 36,000  Level FlightAware Transoceanic
11:02PM 28.2619 -69.7856 349° North 432 497 36,000  Level FlightAware Transoceanic
11:03PM 28.3807 -69.8118 349° North 432 497 36,000  Level FlightAware Transoceanic
11:04PM 28.4995 -69.8380 349° North 432 497 36,000  Level FlightAware Transoceanic
11:05PM 28.6183 -69.8644 349° North 432 497 36,000  Level FlightAware Transoceanic
11:06PM 28.7372 -69.8907 349° North 432 497 36,000  Level FlightAware Transoceanic
11:07PM 28.8560 -69.9172 349° North 432 497 36,000  Level FlightAware Transoceanic
11:08PM 28.9748 -69.9437 349° North 432 497 36,000  Level FlightAware Transoceanic
11:09PM 29.0936 -69.9703 349° North 432 497 36,000  Level FlightAware Transoceanic
11:10PM 29.2124 -69.9969 349° North 432 497 36,000  Level FlightAware Transoceanic
11:11PM 29.3312 -70.0236 349° North 432 497 36,000  Level FlightAware Transoceanic
11:12PM 29.4499 -70.0503 349° North 432 497 36,000  Level FlightAware Transoceanic
11:13PM 29.5687 -70.0772 349° North 432 497 36,000  Level FlightAware Transoceanic
11:14PM 29.6875 -70.1040 349° North 432 497 36,000  Level FlightAware Transoceanic
11:15PM 29.8062 -70.1310 349° North 432 497 36,000  Level FlightAware Transoceanic
11:16PM 29.9250 -70.1580 349° North 432 497 36,000  Level FlightAware Transoceanic
11:17PM 30.0438 -70.1851 349° North 432 497 36,000  Level FlightAware Transoceanic
11:18PM 30.1625 -70.2122 349° North 432 497 36,000  Level FlightAware Transoceanic
11:19PM 30.2813 -70.2394 349° North 432 497 36,000  Level FlightAware Transoceanic
11:20PM 30.4000 -70.2667 349° North 432 497 36,000  Level FlightAware Transoceanic
11:21PM 30.5212 -70.2943 349° North 432 497 36,000  Level FlightAware Transoceanic
11:21PM 30.4000 -70.2667 349° North 437 503 36,000  Level New York Oceanic (ODAPS)
11:22PM 30.6425 -70.3220 349° North 432 497 36,000  Level FlightAware Transoceanic
11:23PM 30.7637 -70.3497 349° North 432 497 36,000  Level FlightAware Transoceanic
11:24PM 30.8849 -70.3775 349° North 432 497 36,000  Level FlightAware Transoceanic
11:25PM 31.0061 -70.4054 349° North 432 497 36,000  Level FlightAware Transoceanic
11:26PM 31.1273 -70.4333 349° North 432 497 36,000  Level FlightAware Transoceanic
11:27PM 31.2486 -70.4614 349° North 432 497 36,000  Level FlightAware Transoceanic
11:28PM 31.4722 -70.5133 349° North 437 503 36,000  Level FlightAware Transoceanic
11:29PM 31.5912 -70.5410 349° North 437 503 36,000  Level FlightAware Transoceanic
11:30PM 31.7103 -70.5688 349° North 437 503 36,000  Level FlightAware Transoceanic
11:31PM 31.8294 -70.5967 349° North 437 503 36,000  Level FlightAware Transoceanic
11:32PM 31.9485 -70.6247 349° North 437 503 36,000  Level FlightAware Transoceanic
11:33PM 32.0676 -70.6527 349° North 437 503 36,000  Level FlightAware Transoceanic
11:34PM 32.1866 -70.6808 349° North 437 503 36,000  Level FlightAware Transoceanic
11:35PM 32.3057 -70.7090 349° North 437 503 36,000  Level FlightAware Transoceanic
11:36PM 32.4248 -70.7373 349° North 437 503 36,000  Level FlightAware Transoceanic
11:37PM 32.5438 -70.7656 349° North 437 503 36,000  Level FlightAware Transoceanic
11:38PM 32.6628 -70.7940 349° North 437 503 36,000  Level FlightAware Transoceanic
11:39PM 32.7819 -70.8225 349° North 437 503 36,000  Level FlightAware Transoceanic
11:40PM 32.9009 -70.8510 349° North 437 503 36,000  Level FlightAware Transoceanic
11:41PM 33.0199 -70.8797 349° North 437 503 36,000  Level FlightAware Transoceanic
11:42PM 33.1390 -70.9084 349° North 437 503 36,000  Level FlightAware Transoceanic
11:43PM 33.2580 -70.9372 349° North 437 503 36,000  Level FlightAware Transoceanic
11:44PM 33.3770 -70.9660 349° North 437 503 36,000  Level FlightAware Transoceanic
11:45PM 33.4960 -70.9950 349° North 437 503 36,000  Level FlightAware Transoceanic
11:46PM 33.6149 -71.0240 349° North 437 503 36,000  Level FlightAware Transoceanic
11:47PM 33.7339 -71.0531 348° North 437 503 36,000  Level FlightAware Transoceanic
11:48PM 33.8529 -71.0823 348° North 437 503 36,000  Level FlightAware Transoceanic
11:49PM 33.9719 -71.1116 348° North 437 503 36,000  Level FlightAware Transoceanic
11:50PM 34.0908 -71.1409 348° North 437 503 36,000  Level FlightAware Transoceanic
11:51PM 34.2098 -71.1703 348° North 437 503 36,000  Level FlightAware Transoceanic
11:52PM 34.3288 -71.1999 348° North 437 503 36,000  Level FlightAware Transoceanic
11:53PM 34.4477 -71.2295 348° North 437 503 36,000  Level FlightAware Transoceanic
11:54PM 34.5666 -71.2591 348° North 437 503 36,000  Level FlightAware Transoceanic
11:55PM 34.6856 -71.2889 348° North 437 503 36,000  Level FlightAware Transoceanic
11:56PM 34.8045 -71.3188 348° North 437 503 36,000  Level FlightAware Transoceanic
11:57PM 34.9234 -71.3487 348° North 437 503 36,000  Level FlightAware Transoceanic
11:58PM 35.0423 -71.3787 348° North 437 503 36,000  Level FlightAware Transoceanic
11:59PM 35.1612 -71.4089 348° North 437 503 36,000  Level FlightAware Transoceanic
12:00AM 35.2801 -71.4391 348° North 437 503 36,000  Level FlightAware Transoceanic
12:01AM 35.3989 -71.4694 348° North 437 503 36,000  Level FlightAware Transoceanic
12:02AM 35.5178 -71.4997 348° North 437 503 36,000  Level FlightAware Transoceanic
12:03AM 35.6367 -71.5302 348° North 437 503 36,000  Level FlightAware Transoceanic
12:04AM 35.7556 -71.5608 348° North 437 503 36,000  Level FlightAware Transoceanic
12:05AM 35.8744 -71.5914 348° North 437 503 36,000  Level FlightAware Transoceanic
12:06AM 35.9933 -71.6222 348° North 437 503 36,000  Level FlightAware Transoceanic
12:07AM 36.1121 -71.6530 348° North 437 503 36,000  Level FlightAware Transoceanic
12:08AM 36.2309 -71.6840 348° North 437 503 36,000 -120 Level FlightAware Transoceanic
12:08AM 36.3944 -71.3647 348° North 446 513 35,900  Descending New York Center
12:09AM 36.3497 -71.7150 348° North 437 503 36,000  Climbing FlightAware Transoceanic
12:09AM 36.5300 -71.3711 358° North 464 534 35,900  Descending New York Center
12:10AM 36.4686 -71.7461 348° North 437 503 36,000 60 Climbing FlightAware Transoceanic
12:10AM 36.6636 -71.3747 359° North 470 541 36,000  Level New York Center
12:11AM 36.5873 -71.7773 348° North 437 503 36,000  Level FlightAware Transoceanic
12:11AM 36.7842 -71.4278 341° North 484 557 36,000  Level New York Center
12:12AM 36.7062 -71.8086 348° North 437 503 36,000  Level FlightAware Transoceanic
12:12AM 36.8986 -71.5092 330° Northwest 453 521 36,000  Level New York Center
12:13AM 36.8249 -71.8400 348° North 437 503 36,000  Level FlightAware Transoceanic
12:18AM 37.5394 -71.9816 330° Northwest 445 512 36,000  Level FlightAware ADS-B
12:18AM 37.5955 -72.0224 330° Northwest 441 507 36,000  Level FlightAware ADS-B
12:19AM 37.6495 -72.0619 330° Northwest 440 506 36,000  Level FlightAware ADS-B
12:23AM 38.0444 -72.3523 330° Northwest 438 504 36,100  Climbing FlightAware ADS-B
12:23AM 38.0976 -72.3917 330° Northwest 436 502 36,000 -480 Descending FlightAware ADS-B
12:24AM 38.1585 -72.4371 330° Northwest 433 498 35,600 -660 Descending FlightAware ADS-B
12:24AM 38.2454 -72.5017 330° Northwest 422 486 35,100 -660 Descending FlightAware ADS-B
12:25AM 38.2963 -72.5396 330° Northwest 411 473 34,700 -900 Descending FlightAware ADS-B
12:25AM 38.3480 -72.5781 330° Northwest 407 468 34,200 -1,020 Descending FlightAware ADS-B
12:26AM 38.3969 -72.6148 330° Northwest 407 468 33,700 -1,020 Descending FlightAware ADS-B
12:26AM 38.4468 -72.6522 330° Northwest 410 472 33,200 -1,020 Descending FlightAware ADS-B
12:27AM 38.4958 -72.6889 330° Northwest 409 471 32,700 -960 Descending FlightAware ADS-B
12:28AM 38.5492 -72.7291 330° Northwest 409 471 32,200 -960 Descending FlightAware ADS-B
12:28AM 38.5995 -72.7670 330° Northwest 412 474 31,700 -1,020 Descending FlightAware ADS-B
12:29AM 38.6498 -72.8050 329° Northwest 415 478 31,200 -1,140 Descending FlightAware ADS-B
12:29AM 38.6996 -72.8426 329° Northwest 413 475 30,600 -1,200 Descending FlightAware ADS-B
12:30AM 38.7501 -72.8808 329° Northwest 409 471 30,000 -1,320 Descending FlightAware ADS-B
12:30AM 38.7997 -72.9185 329° Northwest 404 465 29,300 -1,680 Descending FlightAware ADS-B
12:31AM 38.8494 -72.9563 329° Northwest 397 457 28,300 -2,520 Descending FlightAware ADS-B
12:31AM 38.8978 -72.9932 329° Northwest 402 463 26,700 -3,180 Descending FlightAware ADS-B
12:32AM 38.9475 -73.0312 329° Northwest 409 471 25,100 -2,520 Descending FlightAware ADS-B
12:32AM 38.9974 -73.0691 329° Northwest 401 461 24,100 -1,980 Descending FlightAware ADS-B
12:33AM 39.0445 -73.1049 329° Northwest 389 448 23,100 -1,740 Descending FlightAware ADS-B
12:33AM 39.0901 -73.1398 329° Northwest 375 432 22,400 -2,400 Descending FlightAware ADS-B
12:34AM 39.1368 -73.1759 329° Northwest 385 443 20,700 -2,760 Descending FlightAware ADS-B
12:34AM 39.1838 -73.2119 329° Northwest 376 433 19,600 -1,680 Descending FlightAware ADS-B
12:35AM 39.2277 -73.2454 329° Northwest 356 410 19,000 -1,140 Descending FlightAware ADS-B
12:35AM 39.2699 -73.2778 329° Northwest 338 389 18,500 -900 Descending FlightAware ADS-B
12:36AM 39.3097 -73.3085 329° Northwest 328 377 18,100 -900 Descending FlightAware ADS-B
12:36AM 39.3493 -73.3392 329° Northwest 329 379 17,600 -1,140 Descending FlightAware ADS-B
12:37AM 39.3892 -73.3701 329° Northwest 329 379 17,000 -1,620 Descending FlightAware ADS-B
12:37AM 39.4288 -73.4008 329° Northwest 328 377 16,000 -1,920 Descending FlightAware ADS-B
12:38AM 39.4687 -73.4317 329° Northwest 325 374 15,100 -1,800 Descending FlightAware ADS-B
12:38AM 39.5085 -73.4625 329° Northwest 320 368 14,200 -1,740 Descending FlightAware ADS-B
12:39AM 39.5443 -73.4904 329° Northwest 315 362 13,400 -1,920 Descending FlightAware ADS-B
12:39AM 39.5823 -73.5200 329° Northwest 317 365 12,400 -1,800 Descending FlightAware ADS-B
12:40AM 39.6197 -73.5492 329° Northwest 312 359 11,600 -1,560 Descending FlightAware ADS-B
12:40AM 39.6643 -73.5839 329° Northwest 304 350 10,700 -1,500 Descending FlightAware ADS-B
12:41AM 39.7250 -73.6310 329° Northwest 296 341 9,400 -1,320 Descending FlightAware
12:42AM 39.7513 -73.6521 328° Northwest 285 328 9,100 -480 Descending FlightAware ADS-B
12:42AM 39.7840 -73.6780 329° Northwest 281 323 9,000 -180 Descending FlightAware
12:42AM 39.8046 -73.6938 329° Northwest 280 322 9,000 180 Level FlightAware ADS-B
12:43AM 39.8221 -73.7075 329° Northwest 280 322 9,100  Climbing FlightAware ADS-B
12:43AM 39.8393 -73.7209 329° Northwest 280 322 9,000 -240 Descending FlightAware ADS-B
12:43AM 39.8572 -73.7350 329° Northwest 280 322 9,000 120 Level FlightAware ADS-B
12:43AM 39.8766 -73.7504 329° Northwest 279 321 9,100  Climbing FlightAware ADS-B
12:44AM 39.8933 -73.7636 329° Northwest 282 325 9,000 -240 Descending FlightAware ADS-B
12:44AM 39.9102 -73.7769 329° Northwest 283 326 9,000  Level FlightAware ADS-B
12:44AM 39.9191 -73.7838 329° Northwest 283 326 9,000  Level FlightAware ADS-B
12:44AM 39.9238 -73.7866 335° Northwest 285 328 9,000 180 Level FlightAware ADS-B
12:45AM 39.9537 -73.7900 355° North 293 337 9,100 120 Climbing FlightAware ADS-B
12:45AM 39.9737 -73.7856 10° North 293 337 9,100 -240 Level FlightAware ADS-B
12:45AM 39.9889 -73.7819 11° North 293 337 9,000 -240 Descending FlightAware ADS-B
12:45AM 40.0090 -73.7770 11° North 293 337 9,000 -420 Level FlightAware ADS-B
12:45AM 40.0288 -73.7721 11° North 291 335 8,800 -1,200 Descending FlightAware ADS-B
12:46AM 40.0490 -73.7673 10° North 291 335 8,400 -1,560 Descending FlightAware ADS-B
12:46AM 40.0701 -73.7623 10° North 291 335 8,000 -1,380 Descending FlightAware ADS-B
12:46AM 40.0944 -73.7567 10° North 288 331 7,600 -1,380 Descending FlightAware ADS-B
12:47AM 40.1156 -73.7518 10° North 283 326 7,200 -1,560 Descending FlightAware ADS-B
12:47AM 40.1348 -73.7473 10° North 282 325 6,800 -1,500 Descending FlightAware ADS-B
12:47AM 40.1567 -73.7422 10° North 281 323 6,400 -1,380 Descending FlightAware ADS-B
12:47AM 40.1796 -73.7371 10° North 277 319 6,000 -1,500 Descending FlightAware ADS-B
12:48AM 40.1985 -73.7331 North 275 316 5,600 -1,500 Descending FlightAware ADS-B
12:48AM 40.2209 -73.7286 North 274 315 5,200 -1,500 Descending FlightAware ADS-B
12:48AM 40.2395 -73.7250 North 273 314 4,800 -1,380 Descending FlightAware ADS-B
12:48AM 40.2555 -73.7217 North 269 310 4,600 -1,440 Descending FlightAware ADS-B
12:49AM 40.2616 -73.7197 14° North 270 311 4,400 -900 Descending FlightAware ADS-B
12:49AM 40.2942 -73.6992 26° Northeast 272 313 4,100 -540 Descending FlightAware ADS-B
12:49AM 40.3121 -73.6864 29° Northeast 274 315 4,000 -180 Descending FlightAware ADS-B
12:50AM 40.3454 -73.6625 29° Northeast 272 313 4,000 120 Level FlightAware ADS-B
12:50AM 40.3627 -73.6500 29° Northeast 273 314 4,100  Climbing FlightAware ADS-B
12:50AM 40.3798 -73.6378 29° Northeast 272 313 4,000 -180 Descending FlightAware ADS-B
12:51AM 40.4029 -73.6213 29° Northeast 271 312 4,000 60 Level FlightAware ADS-B
12:51AM 40.4360 -73.5980 28° Northeast 269 310 4,100  Climbing FlightAware
12:52AM 40.4630 -73.5780 29° Northeast 268 308 4,000  Descending FlightAware
12:52AM 40.4763 -73.5690 27° Northeast 269 310 4,100  Climbing FlightAware ADS-B
12:52AM 40.4933 -73.5568 29° Northeast 269 310 4,000 -240 Descending FlightAware ADS-B
12:52AM 40.5099 -73.5448 29° Northeast 269 310 4,000  Level FlightAware ADS-B
12:53AM 40.5263 -73.5331 28° Northeast 271 312 4,000  Level FlightAware ADS-B
12:53AM 40.5338 -73.5291 22° Northeast 270 311 4,000  Level FlightAware ADS-B
12:53AM 40.5403 -73.5269 14° North 269 310 4,000 540 Level FlightAware ADS-B
12:53AM 40.5479 -73.5250 11° North 268 308 4,100  Climbing FlightAware ADS-B
12:53AM 40.5696 -73.5208 North 268 308 4,000 -180 Descending FlightAware ADS-B
12:54AM 40.5998 -73.5150 North 268 308 4,000  Level FlightAware ADS-B
12:54AM 40.6430 -73.5070 North 268 308 4,000  Level FlightAware
12:54AM 40.6680 -73.5040 North 265 305 4,000 -240 Level FlightAware
12:55AM 40.6780 -73.5070 347° North 262 302 3,900 -1,140 Descending FlightAware
12:55AM 40.6860 -73.5140 326° Northwest 259 298 3,700 -1,500 Descending FlightAware
12:55AM 40.7040 -73.5350 319° Northwest 258 297 3,200 -1,080 Descending FlightAware
12:55AM 40.7210 -73.5560 317° Northwest 244 281 3,000 -300 Descending FlightAware
12:56AM 40.7360 -73.5750 316° Northwest 224 258 3,000 -180 Level FlightAware
12:56AM 40.7460 -73.5930 306° West 214 246 2,900 -540 Descending FlightAware
12:56AM 40.7480 -73.6030 285° West 213 245 2,800 -540 Descending FlightAware
12:56AM 40.7480 -73.6080 270° West 212 244 2,800 -540 Level FlightAware
12:56AM 40.7470 -73.6180 262° West 211 243 2,700 -540 Descending FlightAware
12:57AM 40.7410 -73.6360 246° West 203 234 2,600 -360 Descending FlightAware
12:57AM 40.7330 -73.6580 244° Southwest 180 207 2,500 -480 Descending FlightAware
12:57AM 40.7270 -73.6770 247° West 174 200 2,300 -840 Descending FlightAware
12:58AM 40.7200 -73.6920 238° Southwest 179 206 2,000 -1,200 Descending FlightAware
12:58AM 40.7180 -73.6960 237° Southwest 180 207 1,900 -1,500 Descending FlightAware
12:58AM 40.7130 -73.7010 217° Southwest 185 213 1,700 -900 Descending FlightAware
12:58AM 40.7040 -73.7080 211° Southwest 176 203 1,600 -840 Descending FlightAware
12:58AM 40.6900 -73.7200 213° Southwest 154 177 1,200 -1,140 Descending FlightAware
12:59AM 40.6780 -73.7290 210° Southwest 146 168 800 -900 Descending FlightAware
12:59AM 40.6670 -73.7380 212° Southwest 145 167 600 -780 Descending FlightAware
12:59AM 40.6550 -73.7480 212° Southwest 143 165 300 -780 Descending FlightAware
12:59AM 40.6530 -73.7490 201° Southwest 143 165 300  Level FlightAware
01:00AM 40.6380 -73.7600 209° Southwest 131 151 -540 Descending FlightAware
01:30AM 40.6430 -73.7810 90° East  Level FlightAware
02:04AM 40.6430 -73.7810 270° West  Level FlightAware